sensor_id;sensor_type;location;lat;lon;timestamp;P1;durP1;ratioP1;P2;durP2;ratioP2
17606;SDS011;8922;52.240;20.980;2022-09-09T00:01:36;7.83;;;4.53;;
17606;SDS011;8922;52.240;20.980;2022-09-09T00:04:10;8.57;;;4.53;;
17606;SDS011;8922;52.240;20.980;2022-09-09T00:06:43;9.20;;;4.37;;
17606;SDS011;8922;52.240;20.980;2022-09-09T00:09:12;6.23;;;4.10;;
17606;SDS011;8922;52.240;20.980;2022-09-09T00:11:43;7.20;;;4.83;;
17606;SDS011;8922;52.240;20.980;2022-09-09T00:14:18;9.10;;;4.77;;
17606;SDS011;8922;52.240;20.980;2022-09-09T00:16:54;6.80;;;4.50;;
17606;SDS011;8922;52.240;20.980;2022-09-09T00:19:28;8.40;;;5.17;;
17606;SDS011;8922;52.240;20.980;2022-09-09T00:22:05;6.37;;;4.67;;
17606;SDS011;8922;52.240;20.980;2022-09-09T00:24:41;7.83;;;4.70;;
17606;SDS011;8922;52.240;20.980;2022-09-09T00:27:13;7.53;;;4.63;;
17606;SDS011;8922;52.240;20.980;2022-09-09T00:29:45;9.20;;;4.63;;
17606;SDS011;8922;52.240;20.980;2022-09-09T00:32:18;7.80;;;4.63;;
17606;SDS011;8922;52.240;20.980;2022-09-09T00:34:47;8.73;;;5.03;;
17606;SDS011;8922;52.240;20.980;2022-09-09T00:37:15;8.17;;;5.00;;
17606;SDS011;8922;52.240;20.980;2022-09-09T00:39:44;8.10;;;4.83;;
17606;SDS011;8922;52.240;20.980;2022-09-09T00:42:15;8.90;;;4.83;;
17606;SDS011;8922;52.240;20.980;2022-09-09T00:44:49;7.33;;;4.40;;
17606;SDS011;8922;52.240;20.980;2022-09-09T00:47:29;9.83;;;4.80;;
17606;SDS011;8922;52.240;20.980;2022-09-09T00:50:09;7.40;;;5.20;;
17606;SDS011;8922;52.240;20.980;2022-09-09T00:52:51;5.63;;;4.70;;
17606;SDS011;8922;52.240;20.980;2022-09-09T00:55:26;7.27;;;4.83;;
17606;SDS011;8922;52.240;20.980;2022-09-09T00:58:06;7.37;;;4.90;;
17606;SDS011;8922;52.240;20.980;2022-09-09T01:00:35;10.23;;;5.37;;
17606;SDS011;8922;52.240;20.980;2022-09-09T01:03:12;7.97;;;4.90;;
17606;SDS011;8922;52.240;20.980;2022-09-09T01:05:51;10.67;;;5.93;;
17606;SDS011;8922;52.240;20.980;2022-09-09T01:08:32;8.40;;;5.07;;
17606;SDS011;8922;52.240;20.980;2022-09-09T01:11:30;7.63;;;5.20;;
17606;SDS011;8922;52.240;20.980;2022-09-09T01:14:05;10.70;;;5.67;;
17606;SDS011;8922;52.240;20.980;2022-09-09T01:16:43;9.93;;;5.83;;
17606;SDS011;8922;52.240;20.980;2022-09-09T01:19:13;6.00;;;4.70;;
17606;SDS011;8922;52.240;20.980;2022-09-09T01:21:49;9.17;;;5.63;;
17606;SDS011;8922;52.240;20.980;2022-09-09T01:24:24;9.60;;;5.20;;
17606;SDS011;8922;52.240;20.980;2022-09-09T01:26:59;9.53;;;5.77;;
17606;SDS011;8922;52.240;20.980;2022-09-09T01:29:28;8.67;;;5.50;;
17606;SDS011;8922;52.240;20.980;2022-09-09T01:31:56;10.27;;;6.27;;
17606;SDS011;8922;52.240;20.980;2022-09-09T01:34:25;8.43;;;5.80;;
17606;SDS011;8922;52.240;20.980;2022-09-09T01:36:56;8.00;;;5.60;;
17606;SDS011;8922;52.240;20.980;2022-09-09T01:39:26;7.83;;;5.80;;
17606;SDS011;8922;52.240;20.980;2022-09-09T01:41:53;9.13;;;5.87;;
17606;SDS011;8922;52.240;20.980;2022-09-09T01:44:23;10.60;;;5.63;;
17606;SDS011;8922;52.240;20.980;2022-09-09T01:46:51;9.40;;;5.63;;
17606;SDS011;8922;52.240;20.980;2022-09-09T01:49:18;8.63;;;5.37;;
17606;SDS011;8922;52.240;20.980;2022-09-09T01:51:46;9.90;;;5.97;;
17606;SDS011;8922;52.240;20.980;2022-09-09T01:54:16;8.13;;;5.60;;
17606;SDS011;8922;52.240;20.980;2022-09-09T01:56:45;9.03;;;6.60;;
17606;SDS011;8922;52.240;20.980;2022-09-09T01:59:26;9.23;;;6.30;;
17606;SDS011;8922;52.240;20.980;2022-09-09T02:02:07;8.77;;;5.87;;
17606;SDS011;8922;52.240;20.980;2022-09-09T02:04:38;9.87;;;5.97;;
17606;SDS011;8922;52.240;20.980;2022-09-09T02:07:10;7.60;;;6.03;;
17606;SDS011;8922;52.240;20.980;2022-09-09T02:09:49;12.60;;;6.40;;
17606;SDS011;8922;52.240;20.980;2022-09-09T02:12:23;11.50;;;5.97;;
17606;SDS011;8922;52.240;20.980;2022-09-09T02:14:55;12.00;;;6.40;;
17606;SDS011;8922;52.240;20.980;2022-09-09T02:17:27;10.20;;;5.70;;
17606;SDS011;8922;52.240;20.980;2022-09-09T02:19:59;9.60;;;6.27;;
17606;SDS011;8922;52.240;20.980;2022-09-09T02:22:32;8.93;;;6.43;;
17606;SDS011;8922;52.240;20.980;2022-09-09T02:25:00;8.77;;;6.33;;
17606;SDS011;8922;52.240;20.980;2022-09-09T02:27:30;10.40;;;5.93;;
17606;SDS011;8922;52.240;20.980;2022-09-09T02:29:59;8.23;;;6.13;;
17606;SDS011;8922;52.240;20.980;2022-09-09T02:32:27;11.07;;;6.20;;
17606;SDS011;8922;52.240;20.980;2022-09-09T02:34:57;9.37;;;6.37;;
17606;SDS011;8922;52.240;20.980;2022-09-09T02:37:28;8.93;;;6.00;;
17606;SDS011;8922;52.240;20.980;2022-09-09T02:40:00;7.77;;;5.93;;
17606;SDS011;8922;52.240;20.980;2022-09-09T02:42:27;11.37;;;7.20;;
17606;SDS011;8922;52.240;20.980;2022-09-09T02:44:54;10.23;;;6.67;;
17606;SDS011;8922;52.240;20.980;2022-09-09T02:47:27;9.13;;;6.30;;
17606;SDS011;8922;52.240;20.980;2022-09-09T02:50:04;10.13;;;6.43;;
17606;SDS011;8922;52.240;20.980;2022-09-09T02:52:40;9.80;;;6.60;;
17606;SDS011;8922;52.240;20.980;2022-09-09T02:55:16;9.13;;;6.10;;
17606;SDS011;8922;52.240;20.980;2022-09-09T02:57:49;10.40;;;7.00;;
17606;SDS011;8922;52.240;20.980;2022-09-09T03:00:22;10.87;;;6.90;;
17606;SDS011;8922;52.240;20.980;2022-09-09T03:02:51;10.53;;;6.33;;
17606;SDS011;8922;52.240;20.980;2022-09-09T03:05:19;9.20;;;6.70;;
17606;SDS011;8922;52.240;20.980;2022-09-09T03:07:46;10.70;;;6.20;;
17606;SDS011;8922;52.240;20.980;2022-09-09T03:10:14;8.33;;;6.27;;
17606;SDS011;8922;52.240;20.980;2022-09-09T03:12:41;12.90;;;7.97;;
17606;SDS011;8922;52.240;20.980;2022-09-09T03:15:08;11.80;;;7.23;;
17606;SDS011;8922;52.240;20.980;2022-09-09T03:17:35;10.03;;;6.83;;
17606;SDS011;8922;52.240;20.980;2022-09-09T03:20:04;9.43;;;6.77;;
17606;SDS011;8922;52.240;20.980;2022-09-09T03:22:32;11.70;;;6.50;;
17606;SDS011;8922;52.240;20.980;2022-09-09T03:24:59;8.80;;;6.73;;
17606;SDS011;8922;52.240;20.980;2022-09-09T03:27:27;9.93;;;6.60;;
17606;SDS011;8922;52.240;20.980;2022-09-09T03:29:53;9.00;;;6.00;;
17606;SDS011;8922;52.240;20.980;2022-09-09T03:32:21;8.83;;;6.53;;
17606;SDS011;8922;52.240;20.980;2022-09-09T03:34:49;7.83;;;6.07;;
17606;SDS011;8922;52.240;20.980;2022-09-09T03:37:17;10.03;;;6.67;;
17606;SDS011;8922;52.240;20.980;2022-09-09T03:39:44;10.03;;;6.87;;
17606;SDS011;8922;52.240;20.980;2022-09-09T03:42:12;11.23;;;7.10;;
17606;SDS011;8922;52.240;20.980;2022-09-09T03:44:41;9.63;;;6.93;;
17606;SDS011;8922;52.240;20.980;2022-09-09T03:47:11;12.47;;;7.17;;
17606;SDS011;8922;52.240;20.980;2022-09-09T03:49:38;9.53;;;5.93;;
17606;SDS011;8922;52.240;20.980;2022-09-09T03:52:05;8.47;;;5.83;;
17606;SDS011;8922;52.240;20.980;2022-09-09T03:54:33;7.47;;;5.40;;
17606;SDS011;8922;52.240;20.980;2022-09-09T03:57:00;6.10;;;5.30;;
17606;SDS011;8922;52.240;20.980;2022-09-09T03:59:27;6.83;;;5.40;;
17606;SDS011;8922;52.240;20.980;2022-09-09T04:01:53;6.70;;;4.93;;
17606;SDS011;8922;52.240;20.980;2022-09-09T04:04:22;6.57;;;5.03;;
17606;SDS011;8922;52.240;20.980;2022-09-09T04:06:48;8.93;;;5.67;;
17606;SDS011;8922;52.240;20.980;2022-09-09T04:09:15;8.20;;;5.23;;
17606;SDS011;8922;52.240;20.980;2022-09-09T04:11:44;6.80;;;5.23;;
17606;SDS011;8922;52.240;20.980;2022-09-09T04:14:11;7.30;;;5.53;;
17606;SDS011;8922;52.240;20.980;2022-09-09T04:16:38;8.13;;;5.40;;
17606;SDS011;8922;52.240;20.980;2022-09-09T04:19:08;7.03;;;5.53;;
17606;SDS011;8922;52.240;20.980;2022-09-09T04:21:37;10.87;;;6.27;;
17606;SDS011;8922;52.240;20.980;2022-09-09T04:24:04;7.80;;;5.07;;
17606;SDS011;8922;52.240;20.980;2022-09-09T04:26:31;6.33;;;5.27;;
17606;SDS011;8922;52.240;20.980;2022-09-09T04:29:00;7.17;;;4.57;;
17606;SDS011;8922;52.240;20.980;2022-09-09T04:31:27;7.80;;;5.37;;
17606;SDS011;8922;52.240;20.980;2022-09-09T04:33:54;7.27;;;5.07;;
17606;SDS011;8922;52.240;20.980;2022-09-09T04:36:21;7.37;;;4.97;;
17606;SDS011;8922;52.240;20.980;2022-09-09T04:38:48;7.73;;;5.53;;
17606;SDS011;8922;52.240;20.980;2022-09-09T04:41:15;6.93;;;5.23;;
17606;SDS011;8922;52.240;20.980;2022-09-09T04:43:42;6.23;;;5.00;;
17606;SDS011;8922;52.240;20.980;2022-09-09T04:46:10;6.73;;;5.07;;
17606;SDS011;8922;52.240;20.980;2022-09-09T04:48:37;5.40;;;4.50;;
17606;SDS011;8922;52.240;20.980;2022-09-09T04:51:05;4.70;;;4.17;;
17606;SDS011;8922;52.240;20.980;2022-09-09T04:53:35;7.33;;;4.50;;
17606;SDS011;8922;52.240;20.980;2022-09-09T04:56:02;5.13;;;4.33;;
17606;SDS011;8922;52.240;20.980;2022-09-09T04:58:30;5.83;;;4.70;;
17606;SDS011;8922;52.240;20.980;2022-09-09T05:01:02;6.67;;;4.43;;
17606;SDS011;8922;52.240;20.980;2022-09-09T05:03:31;6.97;;;4.30;;
17606;SDS011;8922;52.240;20.980;2022-09-09T05:06:02;5.83;;;4.10;;
17606;SDS011;8922;52.240;20.980;2022-09-09T05:08:30;7.93;;;4.63;;
17606;SDS011;8922;52.240;20.980;2022-09-09T05:10:57;5.73;;;4.50;;
17606;SDS011;8922;52.240;20.980;2022-09-09T05:13:24;5.53;;;4.23;;
17606;SDS011;8922;52.240;20.980;2022-09-09T05:15:51;4.77;;;4.30;;
17606;SDS011;8922;52.240;20.980;2022-09-09T05:18:18;7.37;;;4.20;;
17606;SDS011;8922;52.240;20.980;2022-09-09T05:20:48;5.10;;;4.03;;
17606;SDS011;8922;52.240;20.980;2022-09-09T05:23:15;4.60;;;3.87;;
17606;SDS011;8922;52.240;20.980;2022-09-09T05:25:42;6.43;;;3.70;;
17606;SDS011;8922;52.240;20.980;2022-09-09T05:28:11;5.13;;;3.63;;
17606;SDS011;8922;52.240;20.980;2022-09-09T05:30:38;6.40;;;4.40;;
17606;SDS011;8922;52.240;20.980;2022-09-09T05:33:05;5.50;;;4.50;;
17606;SDS011;8922;52.240;20.980;2022-09-09T05:35:34;4.53;;;4.13;;
17606;SDS011;8922;52.240;20.980;2022-09-09T05:38:02;7.07;;;4.87;;
17606;SDS011;8922;52.240;20.980;2022-09-09T05:40:29;5.33;;;4.43;;
17606;SDS011;8922;52.240;20.980;2022-09-09T05:42:59;5.13;;;3.97;;
17606;SDS011;8922;52.240;20.980;2022-09-09T05:45:26;8.20;;;4.50;;
17606;SDS011;8922;52.240;20.980;2022-09-09T05:47:53;5.13;;;4.50;;
17606;SDS011;8922;52.240;20.980;2022-09-09T05:50:20;5.40;;;4.23;;
17606;SDS011;8922;52.240;20.980;2022-09-09T05:52:47;5.77;;;4.60;;
17606;SDS011;8922;52.240;20.980;2022-09-09T05:55:16;7.73;;;4.20;;
17606;SDS011;8922;52.240;20.980;2022-09-09T05:57:47;5.07;;;4.33;;
17606;SDS011;8922;52.240;20.980;2022-09-09T06:00:16;5.60;;;5.00;;
17606;SDS011;8922;52.240;20.980;2022-09-09T06:02:44;5.87;;;3.90;;
17606;SDS011;8922;52.240;20.980;2022-09-09T06:05:17;6.10;;;4.60;;
17606;SDS011;8922;52.240;20.980;2022-09-09T06:07:44;5.80;;;4.10;;
17606;SDS011;8922;52.240;20.980;2022-09-09T06:10:11;6.37;;;4.60;;
17606;SDS011;8922;52.240;20.980;2022-09-09T06:12:40;5.63;;;4.77;;
17606;SDS011;8922;52.240;20.980;2022-09-09T06:15:07;4.70;;;4.17;;
17606;SDS011;8922;52.240;20.980;2022-09-09T06:17:34;5.80;;;4.30;;
17606;SDS011;8922;52.240;20.980;2022-09-09T06:20:01;5.97;;;5.27;;
17606;SDS011;8922;52.240;20.980;2022-09-09T06:22:29;6.90;;;4.70;;
17606;SDS011;8922;52.240;20.980;2022-09-09T06:24:55;5.03;;;4.47;;
17606;SDS011;8922;52.240;20.980;2022-09-09T06:27:22;4.87;;;4.33;;
17606;SDS011;8922;52.240;20.980;2022-09-09T06:29:50;5.57;;;4.40;;
17606;SDS011;8922;52.240;20.980;2022-09-09T06:32:17;6.20;;;4.90;;
17606;SDS011;8922;52.240;20.980;2022-09-09T06:34:44;5.00;;;4.50;;
17606;SDS011;8922;52.240;20.980;2022-09-09T06:37:11;5.87;;;5.00;;
17606;SDS011;8922;52.240;20.980;2022-09-09T06:39:39;6.80;;;5.10;;
17606;SDS011;8922;52.240;20.980;2022-09-09T06:42:06;5.90;;;5.10;;
17606;SDS011;8922;52.240;20.980;2022-09-09T06:44:33;6.87;;;5.30;;
17606;SDS011;8922;52.240;20.980;2022-09-09T06:47:02;5.63;;;5.10;;
17606;SDS011;8922;52.240;20.980;2022-09-09T06:49:30;5.77;;;5.00;;
17606;SDS011;8922;52.240;20.980;2022-09-09T06:51:57;5.40;;;4.60;;
17606;SDS011;8922;52.240;20.980;2022-09-09T06:54:24;5.47;;;4.80;;
17606;SDS011;8922;52.240;20.980;2022-09-09T06:56:50;5.90;;;5.20;;
17606;SDS011;8922;52.240;20.980;2022-09-09T06:59:17;6.47;;;5.73;;
17606;SDS011;8922;52.240;20.980;2022-09-09T07:01:45;8.77;;;5.80;;
17606;SDS011;8922;52.240;20.980;2022-09-09T07:04:13;9.03;;;6.43;;
17606;SDS011;8922;52.240;20.980;2022-09-09T07:06:41;7.87;;;5.97;;
17606;SDS011;8922;52.240;20.980;2022-09-09T07:09:12;8.87;;;6.23;;
17606;SDS011;8922;52.240;20.980;2022-09-09T07:11:41;6.87;;;6.17;;
17606;SDS011;8922;52.240;20.980;2022-09-09T07:14:09;7.23;;;5.70;;
17606;SDS011;8922;52.240;20.980;2022-09-09T07:16:37;10.23;;;6.87;;
17606;SDS011;8922;52.240;20.980;2022-09-09T07:19:04;6.93;;;6.23;;
17606;SDS011;8922;52.240;20.980;2022-09-09T07:21:33;7.43;;;6.40;;
17606;SDS011;8922;52.240;20.980;2022-09-09T07:24:00;7.80;;;7.07;;
17606;SDS011;8922;52.240;20.980;2022-09-09T07:26:28;9.70;;;6.33;;
17606;SDS011;8922;52.240;20.980;2022-09-09T07:28:56;8.93;;;6.80;;
17606;SDS011;8922;52.240;20.980;2022-09-09T07:31:24;15.53;;;8.70;;
17606;SDS011;8922;52.240;20.980;2022-09-09T07:33:52;9.97;;;7.57;;
17606;SDS011;8922;52.240;20.980;2022-09-09T07:36:20;8.60;;;6.67;;
17606;SDS011;8922;52.240;20.980;2022-09-09T07:38:50;10.07;;;6.23;;
17606;SDS011;8922;52.240;20.980;2022-09-09T07:41:19;9.60;;;7.40;;
17606;SDS011;8922;52.240;20.980;2022-09-09T07:43:49;9.67;;;6.90;;
17606;SDS011;8922;52.240;20.980;2022-09-09T07:46:18;8.40;;;7.30;;
17606;SDS011;8922;52.240;20.980;2022-09-09T07:48:46;9.90;;;7.90;;
17606;SDS011;8922;52.240;20.980;2022-09-09T07:51:17;10.33;;;7.17;;
17606;SDS011;8922;52.240;20.980;2022-09-09T07:53:46;8.77;;;7.10;;
17606;SDS011;8922;52.240;20.980;2022-09-09T07:56:16;9.60;;;7.20;;
17606;SDS011;8922;52.240;20.980;2022-09-09T07:58:45;8.83;;;7.43;;
17606;SDS011;8922;52.240;20.980;2022-09-09T08:01:13;10.90;;;7.77;;
17606;SDS011;8922;52.240;20.980;2022-09-09T08:03:43;12.53;;;8.07;;
17606;SDS011;8922;52.240;20.980;2022-09-09T08:06:11;11.30;;;8.53;;
17606;SDS011;8922;52.240;20.980;2022-09-09T08:08:39;13.73;;;8.90;;
17606;SDS011;8922;52.240;20.980;2022-09-09T08:11:09;10.23;;;7.07;;
17606;SDS011;8922;52.240;20.980;2022-09-09T08:13:38;9.27;;;7.40;;
17606;SDS011;8922;52.240;20.980;2022-09-09T08:16:06;11.53;;;8.00;;
17606;SDS011;8922;52.240;20.980;2022-09-09T08:18:34;9.17;;;7.10;;
17606;SDS011;8922;52.240;20.980;2022-09-09T08:21:06;11.93;;;7.13;;
17606;SDS011;8922;52.240;20.980;2022-09-09T08:23:36;9.93;;;7.23;;
17606;SDS011;8922;52.240;20.980;2022-09-09T08:26:09;10.93;;;7.17;;
17606;SDS011;8922;52.240;20.980;2022-09-09T08:28:38;10.63;;;7.40;;
17606;SDS011;8922;52.240;20.980;2022-09-09T08:31:10;11.73;;;8.10;;
17606;SDS011;8922;52.240;20.980;2022-09-09T08:33:38;10.43;;;8.07;;
17606;SDS011;8922;52.240;20.980;2022-09-09T08:36:06;9.47;;;7.90;;
17606;SDS011;8922;52.240;20.980;2022-09-09T08:38:35;10.70;;;8.17;;
17606;SDS011;8922;52.240;20.980;2022-09-09T08:41:06;9.30;;;8.17;;
17606;SDS011;8922;52.240;20.980;2022-09-09T08:43:46;11.70;;;8.17;;
17606;SDS011;8922;52.240;20.980;2022-09-09T08:46:15;11.53;;;8.00;;
17606;SDS011;8922;52.240;20.980;2022-09-09T08:48:52;9.03;;;7.67;;
17606;SDS011;8922;52.240;20.980;2022-09-09T08:51:24;10.40;;;8.97;;
17606;SDS011;8922;52.240;20.980;2022-09-09T08:53:55;13.10;;;8.90;;
17606;SDS011;8922;52.240;20.980;2022-09-09T08:56:26;11.60;;;8.33;;
17606;SDS011;8922;52.240;20.980;2022-09-09T08:58:58;12.83;;;9.67;;
17606;SDS011;8922;52.240;20.980;2022-09-09T09:04:29;13.63;;;9.07;;
17606;SDS011;8922;52.240;20.980;2022-09-09T09:07:08;13.27;;;9.73;;
17606;SDS011;8922;52.240;20.980;2022-09-09T09:09:45;17.00;;;10.60;;
17606;SDS011;8922;52.240;20.980;2022-09-09T09:12:24;13.07;;;10.13;;
17606;SDS011;8922;52.240;20.980;2022-09-09T09:14:55;15.73;;;10.40;;
17606;SDS011;8922;52.240;20.980;2022-09-09T09:17:24;17.37;;;9.80;;
17606;SDS011;8922;52.240;20.980;2022-09-09T09:19:56;12.97;;;10.50;;
17606;SDS011;8922;52.240;20.980;2022-09-09T09:22:26;14.23;;;10.50;;
17606;SDS011;8922;52.240;20.980;2022-09-09T09:25:00;14.53;;;10.47;;
17606;SDS011;8922;52.240;20.980;2022-09-09T09:27:36;13.17;;;10.30;;
17606;SDS011;8922;52.240;20.980;2022-09-09T09:30:15;13.30;;;10.13;;
17606;SDS011;8922;52.240;20.980;2022-09-09T09:32:53;15.17;;;10.47;;
17606;SDS011;8922;52.240;20.980;2022-09-09T09:35:22;13.83;;;10.67;;
17606;SDS011;8922;52.240;20.980;2022-09-09T09:37:49;13.80;;;10.50;;
17606;SDS011;8922;52.240;20.980;2022-09-09T09:40:18;14.90;;;10.20;;
17606;SDS011;8922;52.240;20.980;2022-09-09T09:42:51;15.20;;;11.17;;
17606;SDS011;8922;52.240;20.980;2022-09-09T09:45:28;13.10;;;10.60;;
17606;SDS011;8922;52.240;20.980;2022-09-09T09:47:58;15.80;;;11.40;;
17606;SDS011;8922;52.240;20.980;2022-09-09T09:50:27;15.87;;;10.87;;
17606;SDS011;8922;52.240;20.980;2022-09-09T09:52:55;17.13;;;11.63;;
17606;SDS011;8922;52.240;20.980;2022-09-09T09:55:22;13.73;;;10.80;;
17606;SDS011;8922;52.240;20.980;2022-09-09T09:57:50;16.20;;;11.97;;
17606;SDS011;8922;52.240;20.980;2022-09-09T10:00:19;15.33;;;10.90;;
17606;SDS011;8922;52.240;20.980;2022-09-09T10:02:49;18.77;;;12.83;;
17606;SDS011;8922;52.240;20.980;2022-09-09T10:05:18;15.47;;;11.77;;
17606;SDS011;8922;52.240;20.980;2022-09-09T10:07:47;17.67;;;11.97;;
17606;SDS011;8922;52.240;20.980;2022-09-09T10:10:27;15.73;;;11.20;;
17606;SDS011;8922;52.240;20.980;2022-09-09T10:13:05;17.10;;;12.00;;
17606;SDS011;8922;52.240;20.980;2022-09-09T10:15:41;16.53;;;12.60;;
17606;SDS011;8922;52.240;20.980;2022-09-09T10:18:22;17.63;;;12.90;;
17606;SDS011;8922;52.240;20.980;2022-09-09T10:21:03;19.70;;;13.53;;
17606;SDS011;8922;52.240;20.980;2022-09-09T10:23:46;17.53;;;12.07;;
17606;SDS011;8922;52.240;20.980;2022-09-09T10:26:31;16.77;;;12.80;;
17606;SDS011;8922;52.240;20.980;2022-09-09T10:29:08;21.47;;;12.50;;
17606;SDS011;8922;52.240;20.980;2022-09-09T10:31:45;17.93;;;12.10;;
17606;SDS011;8922;52.240;20.980;2022-09-09T10:34:26;17.83;;;13.30;;
17606;SDS011;8922;52.240;20.980;2022-09-09T10:37:07;19.67;;;13.33;;
17606;SDS011;8922;52.240;20.980;2022-09-09T10:39:47;19.13;;;12.93;;
17606;SDS011;8922;52.240;20.980;2022-09-09T10:42:20;21.00;;;13.47;;
17606;SDS011;8922;52.240;20.980;2022-09-09T10:44:57;22.30;;;13.87;;
17606;SDS011;8922;52.240;20.980;2022-09-09T10:47:36;22.70;;;14.43;;
17606;SDS011;8922;52.240;20.980;2022-09-09T10:50:28;21.03;;;14.20;;
17606;SDS011;8922;52.240;20.980;2022-09-09T10:53:14;20.93;;;13.10;;
17606;SDS011;8922;52.240;20.980;2022-09-09T10:55:51;24.35;;;14.82;;
17606;SDS011;8922;52.240;20.980;2022-09-09T10:58:22;22.67;;;14.80;;
17606;SDS011;8922;52.240;20.980;2022-09-09T11:00:52;20.10;;;14.30;;
17606;SDS011;8922;52.240;20.980;2022-09-09T11:03:24;23.83;;;15.97;;
17606;SDS011;8922;52.240;20.980;2022-09-09T11:05:56;22.33;;;15.27;;
17606;SDS011;8922;52.240;20.980;2022-09-09T11:08:28;20.83;;;14.07;;
17606;SDS011;8922;52.240;20.980;2022-09-09T11:10:57;24.33;;;15.43;;
17606;SDS011;8922;52.240;20.980;2022-09-09T11:13:30;24.57;;;15.97;;
17606;SDS011;8922;52.240;20.980;2022-09-09T11:16:05;24.20;;;16.13;;
17606;SDS011;8922;52.240;20.980;2022-09-09T11:18:45;26.97;;;16.60;;
17606;SDS011;8922;52.240;20.980;2022-09-09T11:21:15;26.60;;;17.60;;
17606;SDS011;8922;52.240;20.980;2022-09-09T11:23:49;22.97;;;16.57;;
17606;SDS011;8922;52.240;20.980;2022-09-09T11:26:25;26.07;;;17.57;;
17606;SDS011;8922;52.240;20.980;2022-09-09T11:29:00;26.17;;;17.83;;
17606;SDS011;8922;52.240;20.980;2022-09-09T11:31:43;26.03;;;17.03;;
17606;SDS011;8922;52.240;20.980;2022-09-09T11:34:15;24.93;;;16.47;;
17606;SDS011;8922;52.240;20.980;2022-09-09T11:36:58;26.27;;;17.03;;
17606;SDS011;8922;52.240;20.980;2022-09-09T11:42:40;27.02;;;18.23;;
17606;SDS011;8922;52.240;20.980;2022-09-09T11:45:15;32.37;;;18.07;;
17606;SDS011;8922;52.240;20.980;2022-09-09T11:47:52;27.33;;;17.57;;
17606;SDS011;8922;52.240;20.980;2022-09-09T11:50:28;29.87;;;18.20;;
17606;SDS011;8922;52.240;20.980;2022-09-09T11:53:16;24.63;;;17.08;;
17606;SDS011;8922;52.240;20.980;2022-09-09T11:55:48;28.55;;;18.40;;
17606;SDS011;8922;52.240;20.980;2022-09-09T11:58:26;25.47;;;17.57;;
17606;SDS011;8922;52.240;20.980;2022-09-09T12:00:57;27.30;;;17.85;;
17606;SDS011;8922;52.240;20.980;2022-09-09T12:03:32;31.77;;;18.87;;
17606;SDS011;8922;52.240;20.980;2022-09-09T12:06:11;33.60;;;18.73;;
17606;SDS011;8922;52.240;20.980;2022-09-09T12:08:46;29.87;;;18.80;;
17606;SDS011;8922;52.240;20.980;2022-09-09T12:11:23;27.80;;;18.02;;
17606;SDS011;8922;52.240;20.980;2022-09-09T12:13:54;30.17;;;18.30;;
17606;SDS011;8922;52.240;20.980;2022-09-09T12:16:29;32.47;;;18.53;;
17606;SDS011;8922;52.240;20.980;2022-09-09T12:19:13;32.00;;;19.65;;
17606;SDS011;8922;52.240;20.980;2022-09-09T12:21:47;30.30;;;19.17;;
17606;SDS011;8922;52.240;20.980;2022-09-09T12:24:22;25.90;;;18.30;;
17606;SDS011;8922;52.240;20.980;2022-09-09T12:26:57;28.77;;;19.07;;
17606;SDS011;8922;52.240;20.980;2022-09-09T12:29:30;28.37;;;19.97;;
17606;SDS011;8922;52.240;20.980;2022-09-09T12:32:06;29.52;;;19.60;;
17606;SDS011;8922;52.240;20.980;2022-09-09T12:34:38;33.30;;;20.30;;
17606;SDS011;8922;52.240;20.980;2022-09-09T12:37:13;33.90;;;20.10;;
17606;SDS011;8922;52.240;20.980;2022-09-09T12:39:47;33.07;;;19.77;;
17606;SDS011;8922;52.240;20.980;2022-09-09T12:42:19;29.83;;;20.40;;
17606;SDS011;8922;52.240;20.980;2022-09-09T12:44:51;29.33;;;19.70;;
17606;SDS011;8922;52.240;20.980;2022-09-09T12:47:18;33.43;;;20.00;;
17606;SDS011;8922;52.240;20.980;2022-09-09T12:49:47;32.40;;;20.60;;
17606;SDS011;8922;52.240;20.980;2022-09-09T12:52:16;36.83;;;21.73;;
17606;SDS011;8922;52.240;20.980;2022-09-09T12:54:50;31.75;;;19.77;;
17606;SDS011;8922;52.240;20.980;2022-09-09T12:57:18;34.07;;;21.30;;
17606;SDS011;8922;52.240;20.980;2022-09-09T12:59:48;32.33;;;19.77;;
17606;SDS011;8922;52.240;20.980;2022-09-09T13:02:18;34.38;;;20.50;;
17606;SDS011;8922;52.240;20.980;2022-09-09T13:04:48;31.02;;;20.80;;
17606;SDS011;8922;52.240;20.980;2022-09-09T13:07:15;32.88;;;20.77;;
17606;SDS011;8922;52.240;20.980;2022-09-09T13:09:43;35.90;;;21.38;;
17606;SDS011;8922;52.240;20.980;2022-09-09T13:12:13;28.88;;;20.25;;
17606;SDS011;8922;52.240;20.980;2022-09-09T13:14:43;30.45;;;19.88;;
17606;SDS011;8922;52.240;20.980;2022-09-09T13:17:17;30.80;;;20.37;;
17606;SDS011;8922;52.240;20.980;2022-09-09T13:19:46;32.08;;;21.35;;
17606;SDS011;8922;52.240;20.980;2022-09-09T13:22:20;31.88;;;20.13;;
17606;SDS011;8922;52.240;20.980;2022-09-09T13:24:48;30.23;;;19.95;;
17606;SDS011;8922;52.240;20.980;2022-09-09T13:27:30;36.83;;;21.45;;
17606;SDS011;8922;52.240;20.980;2022-09-09T13:29:59;34.85;;;22.35;;
17606;SDS011;8922;52.240;20.980;2022-09-09T13:32:26;32.77;;;20.73;;
17606;SDS011;8922;52.240;20.980;2022-09-09T13:34:55;34.20;;;21.20;;
17606;SDS011;8922;52.240;20.980;2022-09-09T13:37:23;40.80;;;23.13;;
17606;SDS011;8922;52.240;20.980;2022-09-09T13:39:55;35.92;;;22.02;;
17606;SDS011;8922;52.240;20.980;2022-09-09T13:42:24;36.97;;;22.03;;
17606;SDS011;8922;52.240;20.980;2022-09-09T13:44:53;41.07;;;21.73;;
17606;SDS011;8922;52.240;20.980;2022-09-09T13:47:26;37.08;;;22.52;;
17606;SDS011;8922;52.240;20.980;2022-09-09T13:49:56;33.63;;;20.50;;
17606;SDS011;8922;52.240;20.980;2022-09-09T13:52:23;36.53;;;20.75;;
17606;SDS011;8922;52.240;20.980;2022-09-09T13:54:52;35.45;;;20.98;;
17606;SDS011;8922;52.240;20.980;2022-09-09T13:57:21;36.75;;;22.38;;
17606;SDS011;8922;52.240;20.980;2022-09-09T13:59:50;36.27;;;21.73;;
17606;SDS011;8922;52.240;20.980;2022-09-09T14:02:19;36.20;;;20.83;;
17606;SDS011;8922;52.240;20.980;2022-09-09T14:04:46;33.20;;;20.27;;
17606;SDS011;8922;52.240;20.980;2022-09-09T14:07:16;34.03;;;20.73;;
17606;SDS011;8922;52.240;20.980;2022-09-09T14:09:44;40.67;;;20.93;;
17606;SDS011;8922;52.240;20.980;2022-09-09T14:12:14;37.75;;;21.48;;
17606;SDS011;8922;52.240;20.980;2022-09-09T14:14:42;38.17;;;20.27;;
17606;SDS011;8922;52.240;20.980;2022-09-09T14:17:09;35.63;;;19.42;;
17606;SDS011;8922;52.240;20.980;2022-09-09T14:19:37;33.47;;;19.77;;
17606;SDS011;8922;52.240;20.980;2022-09-09T14:22:04;31.45;;;19.35;;
17606;SDS011;8922;52.240;20.980;2022-09-09T14:24:31;37.87;;;20.37;;
17606;SDS011;8922;52.240;20.980;2022-09-09T14:26:58;34.33;;;19.83;;
17606;SDS011;8922;52.240;20.980;2022-09-09T14:29:25;34.67;;;20.10;;
17606;SDS011;8922;52.240;20.980;2022-09-09T14:31:51;33.50;;;19.20;;
17606;SDS011;8922;52.240;20.980;2022-09-09T14:34:18;35.63;;;19.05;;
17606;SDS011;8922;52.240;20.980;2022-09-09T14:36:46;36.13;;;20.47;;
17606;SDS011;8922;52.240;20.980;2022-09-09T14:39:13;38.60;;;19.05;;
17606;SDS011;8922;52.240;20.980;2022-09-09T14:41:40;33.17;;;19.07;;
17606;SDS011;8922;52.240;20.980;2022-09-09T14:44:07;36.53;;;18.38;;
17606;SDS011;8922;52.240;20.980;2022-09-09T14:46:34;32.05;;;18.40;;
17606;SDS011;8922;52.240;20.980;2022-09-09T14:49:00;33.27;;;19.23;;
17606;SDS011;8922;52.240;20.980;2022-09-09T14:51:27;28.88;;;17.83;;
17606;SDS011;8922;52.240;20.980;2022-09-09T14:53:56;32.27;;;17.53;;
17606;SDS011;8922;52.240;20.980;2022-09-09T14:56:25;32.27;;;17.93;;
17606;SDS011;8922;52.240;20.980;2022-09-09T14:58:53;31.17;;;18.87;;
17606;SDS011;8922;52.240;20.980;2022-09-09T15:01:21;31.07;;;17.97;;
17606;SDS011;8922;52.240;20.980;2022-09-09T15:03:49;31.98;;;18.70;;